Walhonding, Ohio
Current Conditions -  °F | °C
As of 9:36 PM on Tuesday 21 Oct 2014 (Local Time) from K4I3 Reporting Station
Overcast Overcast  
Wind Chill: 40°   Ceiling: 1600
Heat Index: 45°   Visibility: 10mi
Dew Point: 41°   Wind: 9mph
Humidity: 87%   Direction: 320°NW
Pressure: 30.12"   Gusts: NA
Location:  40.35°N, 82.14°W
Report Text: K4I3 220136Z AUTO 32008KT 10SM OVC016 07/05 A3012 RMK AO2
Loading
Personal Weather Stations






























Interactive Weather Map New forecast layout! Learn more

10-Day Weather Forecast

Advertisements
Track Severe Weather on mobile